createdAt,value
2018-12-18T00:01:09.947Z,98987.84
2018-12-18T00:03:41.808Z,98987.02
2018-12-18T00:06:13.812Z,98990.55
2018-12-18T00:08:45.937Z,98984.84
2018-12-18T00:11:19.031Z,98992.34
2018-12-18T00:13:51.048Z,99001.81
2018-12-18T00:16:23.125Z,99014.95
2018-12-18T00:18:55.087Z,99000.92
2018-12-18T00:21:27.021Z,98996.59
2018-12-18T00:23:58.988Z,99004.63
2018-12-18T00:26:30.890Z,99005.95
2018-12-18T00:29:03.602Z,99004.60
2018-12-18T00:31:37.394Z,99002.63
2018-12-18T00:34:09.228Z,98999.62
2018-12-18T00:36:41.125Z,98994.29
2018-12-18T00:39:13.099Z,98989.58
2018-12-18T00:41:44.998Z,98994.22
2018-12-18T00:44:17.000Z,98994.53
2018-12-18T00:46:48.988Z,99002.61
2018-12-18T00:49:20.952Z,99009.59
2018-12-18T00:51:52.907Z,99004.36
2018-12-18T00:54:24.968Z,99006.45
2018-12-18T00:56:57.015Z,99011.13
2018-12-18T00:59:28.922Z,99011.66
2018-12-18T01:02:01.019Z,99013.09
2018-12-18T01:04:32.986Z,99020.69
2018-12-18T01:07:04.987Z,99021.45
2018-12-18T01:09:37.057Z,99022.12
2018-12-18T01:12:08.933Z,99022.33
2018-12-18T01:14:40.837Z,99016.93
2018-12-18T01:17:12.901Z,99020.63
2018-12-18T01:19:44.874Z,99021.50
2018-12-18T01:22:17.094Z,99025.89
2018-12-18T01:24:50.765Z,99020.30
2018-12-18T01:27:22.808Z,99032.80
2018-12-18T01:29:54.799Z,99038.30
2018-12-18T01:32:26.785Z,99028.11
2018-12-18T01:34:58.668Z,99019.36
2018-12-18T01:37:30.597Z,99022.82
2018-12-18T01:40:02.382Z,99010.81
2018-12-18T01:42:34.320Z,99017.72
2018-12-18T01:45:06.664Z,99023.16
2018-12-18T01:47:38.717Z,99029.12
2018-12-18T01:50:10.850Z,99018.47
2018-12-18T01:52:42.707Z,99022.94
2018-12-18T01:55:14.504Z,99034.31
2018-12-18T01:57:46.670Z,99033.90
2018-12-18T02:00:18.641Z,99037.41
2018-12-18T02:02:50.651Z,99037.91
2018-12-18T02:05:22.659Z,99030.33
2018-12-18T02:07:54.563Z,99024.25
2018-12-18T02:10:26.781Z,99027.73
2018-12-18T02:12:58.805Z,99025.69
2018-12-18T02:15:30.787Z,99031.22
2018-12-18T02:18:02.896Z,99024.40
2018-12-18T02:20:34.997Z,99021.64
2018-12-18T02:23:06.974Z,99021.42
2018-12-18T02:25:38.939Z,99020.30
2018-12-18T02:28:10.978Z,99012.63
2018-12-18T02:30:42.905Z,99013.55
2018-12-18T02:33:14.971Z,99013.36
2018-12-18T02:35:46.866Z,99011.51
2018-12-18T02:38:18.943Z,99006.46
2018-12-18T02:40:50.984Z,99009.31
2018-12-18T02:43:22.984Z,99010.73
2018-12-18T02:45:54.917Z,99010.79
2018-12-18T02:48:26.998Z,99000.76
2018-12-18T02:50:59.020Z,99001.13
2018-12-18T02:53:31.007Z,98993.28
2018-12-18T02:56:02.915Z,98996.14
2018-12-18T02:58:34.879Z,98998.30
2018-12-18T03:01:06.622Z,98999.75
2018-12-18T03:03:38.763Z,98997.40
2018-12-18T03:06:10.853Z,98995.13
2018-12-18T03:08:43.065Z,99000.39
2018-12-18T03:11:15.322Z,98989.58
2018-12-18T03:13:48.584Z,98981.18
2018-12-18T03:16:21.281Z,98979.14
2018-12-18T03:18:53.239Z,98975.65
2018-12-18T03:21:25.299Z,98971.84
2018-12-18T03:24:00.712Z,98975.88
2018-12-18T03:26:34.785Z,98973.33
2018-12-18T03:29:07.652Z,98972.09
2018-12-18T03:31:40.438Z,98969.03
2018-12-18T03:34:14.264Z,98967.53
2018-12-18T03:36:47.395Z,98961.64
2018-12-18T03:39:21.625Z,98959.91
2018-12-18T03:41:54.655Z,98951.46
2018-12-18T03:44:27.645Z,98945.69
2018-12-18T03:47:00.433Z,98951.42
2018-12-18T03:49:32.953Z,98955.44
2018-12-18T03:52:05.035Z,98947.34
2018-12-18T03:54:37.280Z,98946.65
2018-12-18T03:57:09.179Z,98940.13
2018-12-18T03:59:41.111Z,98934.94
2018-12-18T04:02:12.911Z,98940.22
2018-12-18T04:04:44.891Z,98942.62
2018-12-18T04:07:16.768Z,98949.56
2018-12-18T04:09:48.729Z,98939.53
2018-12-18T04:12:20.704Z,98940.77
2018-12-18T04:14:53.000Z,98942.92
2018-12-18T04:17:25.040Z,98945.09
2018-12-18T04:19:57.061Z,98939.03
2018-12-18T04:22:29.220Z,98943.50
2018-12-18T04:25:01.028Z,98936.27
2018-12-18T04:27:33.028Z,98932.00
2018-12-18T04:30:05.769Z,98930.92
2018-12-18T04:32:37.945Z,98927.36
2018-12-18T04:35:10.002Z,98920.97
2018-12-18T04:37:42.100Z,98914.63
2018-12-18T04:40:14.177Z,98914.57
2018-12-18T04:42:46.280Z,98908.88
2018-12-18T04:45:18.280Z,98907.84
2018-12-18T04:47:50.333Z,98904.43
2018-12-18T04:50:22.258Z,98906.20
2018-12-18T04:52:54.281Z,98920.22
2018-12-18T04:55:26.545Z,98920.44
2018-12-18T04:57:58.480Z,98917.98
2018-12-18T05:00:30.543Z,98916.08
2018-12-18T05:03:08.751Z,98915.36
2018-12-18T05:05:45.274Z,98906.45
2018-12-18T05:08:17.180Z,98912.27
2018-12-18T05:10:52.898Z,98904.27
2018-12-18T05:13:25.437Z,98906.23
2018-12-18T05:15:58.564Z,98906.84
2018-12-18T05:18:30.758Z,98919.39
2018-12-18T05:21:03.705Z,98909.23
2018-12-18T05:23:35.995Z,98904.34
2018-12-18T05:26:08.183Z,98904.30
2018-12-18T05:28:40.499Z,98899.38
2018-12-18T05:31:12.759Z,98892.93
2018-12-18T05:33:45.136Z,98893.14
2018-12-18T05:36:17.910Z,98891.69
2018-12-18T05:38:50.044Z,98898.03
2018-12-18T05:41:23.163Z,98904.90
2018-12-18T05:43:54.937Z,98901.38
2018-12-18T05:46:27.194Z,98907.95
2018-12-18T05:48:59.089Z,98898.97
2018-12-18T05:51:31.015Z,98898.64
2018-12-18T05:54:03.356Z,98898.17
2018-12-18T05:56:35.163Z,98892.98
2018-12-18T05:59:07.938Z,98906.47
2018-12-18T06:01:39.921Z,98904.14
2018-12-18T06:04:11.997Z,98909.34
2018-12-18T06:06:43.970Z,98905.05
2018-12-18T06:09:15.831Z,98911.05
2018-12-18T06:11:47.799Z,98908.99
2018-12-18T06:14:19.594Z,98902.37
2018-12-18T06:16:51.641Z,98897.36
2018-12-18T06:19:23.543Z,98900.20
2018-12-18T06:21:55.498Z,98896.73
2018-12-18T06:27:02.660Z,98893.67
2018-12-18T06:29:34.676Z,98891.83
2018-12-18T06:32:06.656Z,98898.03
2018-12-18T06:34:38.706Z,98896.20
2018-12-18T06:37:10.773Z,98902.40
2018-12-18T06:39:42.659Z,98898.72
2018-12-18T06:42:14.571Z,98894.70
2018-12-18T06:44:46.578Z,98890.42
2018-12-18T06:49:54.735Z,98894.04
2018-12-18T06:52:27.914Z,98889.62
2018-12-18T06:55:00.984Z,98882.00
2018-12-18T06:57:33.934Z,98881.66
2018-12-18T07:00:09.311Z,98883.21
2018-12-18T07:02:42.119Z,98884.37
2018-12-18T07:05:16.900Z,98889.00
2018-12-18T07:08:04.916Z,98886.12
2018-12-18T07:14:11.517Z,98875.78
2018-12-18T07:16:43.443Z,98878.22
2018-12-18T07:19:15.478Z,98882.31
2018-12-18T07:21:47.341Z,98871.43
2018-12-18T07:24:19.310Z,98875.67
2018-12-18T07:26:51.121Z,98872.89
2018-12-18T07:29:23.255Z,98872.22
2018-12-18T07:31:55.158Z,98870.19
2018-12-18T07:34:33.258Z,98879.70
2018-12-18T07:37:01.597Z,98871.87
2018-12-18T07:39:33.697Z,98892.05
2018-12-18T07:42:05.653Z,98892.08
2018-12-18T07:44:37.419Z,98889.14
2018-12-18T07:47:09.338Z,98893.20
2018-12-18T07:49:41.486Z,98884.17
2018-12-18T07:52:13.534Z,98884.38
2018-12-18T07:54:51.547Z,98882.80
2018-12-18T07:57:29.781Z,98879.48
2018-12-18T08:00:01.622Z,98881.36
2018-12-18T08:02:33.601Z,98887.89
2018-12-18T08:05:05.804Z,98883.28
2018-12-18T08:07:38.243Z,98884.42
2018-12-18T08:10:10.463Z,98877.45
2018-12-18T08:12:42.520Z,98886.88
2018-12-18T08:15:14.416Z,98877.04
2018-12-18T08:17:46.453Z,98878.86
2018-12-18T08:20:18.258Z,98875.49
2018-12-18T08:22:50.207Z,98869.95
2018-12-18T08:25:22.152Z,98873.72
2018-12-18T08:27:55.079Z,98873.20
2018-12-18T08:30:26.958Z,98873.13
2018-12-18T08:32:58.866Z,98875.16
2018-12-18T08:35:36.290Z,98874.44
2018-12-18T08:38:05.185Z,98881.95
2018-12-18T08:40:37.203Z,98875.38
2018-12-18T08:43:09.175Z,98881.37
2018-12-18T08:45:41.200Z,98884.36
2018-12-18T08:48:13.069Z,98891.88
2018-12-18T08:51:00.566Z,98888.44
2018-12-18T08:53:32.665Z,98889.27
2018-12-18T08:56:04.772Z,98896.18
2018-12-18T08:58:36.848Z,98895.64
2018-12-18T09:01:08.853Z,98895.45
2018-12-18T09:03:40.918Z,98893.59
2018-12-18T09:06:12.890Z,98896.20
2018-12-18T09:08:44.896Z,98895.77
2018-12-18T09:11:17.097Z,98898.44
2018-12-18T09:13:49.054Z,98898.44
2018-12-18T09:16:20.921Z,98899.06
2018-12-18T09:18:52.872Z,98896.19
2018-12-18T09:21:24.745Z,98906.65
2018-12-18T09:23:56.723Z,98901.11
2018-12-18T09:26:28.748Z,98899.89
2018-12-18T09:29:00.663Z,98902.45
2018-12-18T09:31:32.711Z,98892.47
2018-12-18T09:34:04.888Z,98902.84
2018-12-18T09:36:36.823Z,98903.58
2018-12-18T09:39:09.455Z,98896.59
2018-12-18T09:41:41.634Z,98903.58
2018-12-18T09:44:13.520Z,98901.63
2018-12-18T09:46:45.588Z,98904.61
2018-12-18T09:49:17.554Z,98906.84
2018-12-18T09:51:49.456Z,98902.25
2018-12-18T09:54:21.581Z,98902.56
2018-12-18T09:56:53.476Z,98902.05
2018-12-18T09:59:25.408Z,98900.99
2018-12-18T10:01:58.263Z,98899.15
2018-12-18T10:04:30.653Z,98894.83
2018-12-18T10:07:02.551Z,98892.70
2018-12-18T10:09:34.557Z,98886.41
2018-12-18T10:12:06.451Z,98878.60
2018-12-18T10:14:38.259Z,98877.89
2018-12-18T10:17:10.096Z,98870.50
2018-12-18T10:19:42.313Z,98874.07
2018-12-18T10:22:15.470Z,98876.23
2018-12-18T10:24:47.684Z,98873.27
2018-12-18T10:27:19.684Z,98876.36
2018-12-18T10:29:51.796Z,98868.23
2018-12-18T10:32:23.739Z,98866.58
2018-12-18T10:34:55.827Z,98873.26
2018-12-18T10:37:27.837Z,98878.28
2018-12-18T10:39:59.953Z,98876.13
2018-12-18T10:42:32.223Z,98868.55
2018-12-18T10:45:04.872Z,98874.39
2018-12-18T10:47:36.841Z,98865.56
2018-12-18T10:50:08.807Z,98860.41
2018-12-18T10:52:40.751Z,98858.46
2018-12-18T10:55:12.682Z,98852.80
2018-12-18T10:57:44.523Z,98850.33
2018-12-18T11:00:16.642Z,98851.97
2018-12-18T11:02:48.586Z,98849.80
2018-12-18T11:05:20.606Z,98849.98
2018-12-18T11:07:52.593Z,98853.17
2018-12-18T11:10:26.403Z,98851.23
2018-12-18T11:12:58.512Z,98849.48
2018-12-18T11:15:30.540Z,98854.02
2018-12-18T11:18:02.240Z,98841.67
2018-12-18T11:20:34.161Z,98845.48
2018-12-18T11:23:06.092Z,98837.97
2018-12-18T11:25:38.325Z,98837.77
2018-12-18T11:28:10.315Z,98830.47
2018-12-18T11:30:42.270Z,98832.14
2018-12-18T11:33:14.939Z,98830.62
2018-12-18T11:35:46.883Z,98826.70
2018-12-18T11:38:18.849Z,98832.78
2018-12-18T11:40:50.833Z,98831.24
2018-12-18T11:43:23.183Z,98830.17
2018-12-18T11:45:56.058Z,98832.06
2018-12-18T11:48:28.095Z,98826.09
2018-12-18T11:51:00.081Z,98825.27
2018-12-18T11:53:32.565Z,98825.88
2018-12-18T11:56:05.299Z,98830.62
2018-12-18T11:58:37.331Z,98816.31
2018-12-18T12:01:09.273Z,98814.16
2018-12-18T12:03:41.230Z,98817.55
2018-12-18T12:06:13.323Z,98827.09
2018-12-18T12:08:46.110Z,98826.78
2018-12-18T12:11:19.431Z,98820.40
2018-12-18T12:13:52.031Z,98815.48
2018-12-18T12:16:25.692Z,98826.18
2018-12-18T12:18:57.799Z,98811.91
2018-12-18T12:21:29.812Z,98816.53
2018-12-18T12:24:02.187Z,98816.27
2018-12-18T12:26:35.231Z,98811.95
2018-12-18T12:29:08.749Z,98815.09
2018-12-18T12:31:41.435Z,98818.39
2018-12-18T12:34:14.310Z,98814.67
2018-12-18T12:36:47.447Z,98821.11
2018-12-18T12:39:21.070Z,98825.38
2018-12-18T12:41:54.738Z,98818.14
2018-12-18T12:44:27.491Z,98816.75
2018-12-18T12:47:00.100Z,98818.60
2018-12-18T12:49:33.656Z,98816.34
2018-12-18T12:52:06.883Z,98823.50
2018-12-18T12:54:40.231Z,98821.69
2018-12-18T12:57:13.572Z,98820.15
2018-12-18T12:59:46.105Z,98827.52
2018-12-18T13:02:18.868Z,98821.47
2018-12-18T13:04:52.094Z,98814.98
2018-12-18T13:07:26.496Z,98816.77
2018-12-18T13:09:59.353Z,98823.11
2018-12-18T13:12:32.346Z,98816.75
2018-12-18T13:15:04.487Z,98808.23
2018-12-18T13:17:37.538Z,98811.75
2018-12-18T13:20:10.751Z,98813.58
2018-12-18T13:22:44.098Z,98803.08
2018-12-18T13:25:17.655Z,98809.34
2018-12-18T13:27:51.403Z,98806.88
2018-12-18T13:30:24.921Z,98814.40
2018-12-18T13:32:57.806Z,98814.70
2018-12-18T13:35:31.382Z,98819.61
2018-12-18T13:38:04.696Z,98811.21
2018-12-18T13:40:37.055Z,98813.16
2018-12-18T13:43:10.369Z,98815.33
2018-12-18T13:45:44.592Z,98813.98
2018-12-18T13:48:17.017Z,98816.46
2018-12-18T13:50:49.232Z,98814.82
2018-12-18T13:53:21.876Z,98813.48
2018-12-18T13:55:54.404Z,98816.78
2018-12-18T13:58:26.504Z,98803.23
2018-12-18T14:01:00.084Z,98819.34
2018-12-18T14:03:33.034Z,98811.53
2018-12-18T14:06:05.557Z,98810.19
2018-12-18T14:08:37.604Z,98817.80
2018-12-18T14:11:10.819Z,98809.78
2018-12-18T14:13:42.870Z,98811.94
2018-12-18T14:16:15.046Z,98804.75
2018-12-18T14:18:47.418Z,98806.80
2018-12-18T14:21:19.659Z,98815.23
2018-12-18T14:23:52.490Z,98802.98
2018-12-18T14:26:24.868Z,98795.38
2018-12-18T14:28:56.987Z,98804.13
2018-12-18T14:31:29.633Z,98806.29
2018-12-18T14:34:01.882Z,98800.41
2018-12-18T14:36:34.170Z,98804.75
2018-12-18T14:39:07.667Z,98811.81
2018-12-18T14:41:39.807Z,98811.13
2018-12-18T14:44:11.643Z,98807.61
2018-12-18T14:46:43.416Z,98798.37
2018-12-18T14:49:16.070Z,98805.44
2018-12-18T14:51:49.065Z,98803.48
2018-12-18T14:54:21.116Z,98807.52
2018-12-18T14:56:53.036Z,98791.48
2018-12-18T14:59:25.064Z,98798.59
2018-12-18T15:01:57.128Z,98799.81
2018-12-18T15:04:29.208Z,98805.58
2018-12-18T15:07:03.041Z,98805.65
2018-12-18T15:09:35.243Z,98807.11
2018-12-18T15:12:07.354Z,98805.88
2018-12-18T15:14:39.240Z,98798.39
2018-12-18T15:17:11.151Z,98797.14
2018-12-18T15:19:43.201Z,98793.62
2018-12-18T15:22:15.147Z,98798.74
2018-12-18T15:24:47.111Z,98800.09
2018-12-18T15:27:19.128Z,98785.21
2018-12-18T15:29:51.076Z,98791.78
2018-12-18T15:32:23.081Z,98789.42
2018-12-18T15:34:55.031Z,98799.58
2018-12-18T15:37:27.069Z,98804.92
2018-12-18T15:39:59.097Z,98793.89
2018-12-18T15:42:31.180Z,98797.70
2018-12-18T15:45:03.240Z,98805.20
2018-12-18T15:47:35.295Z,98793.29
2018-12-18T15:50:08.130Z,98802.22
2018-12-18T15:52:40.930Z,98809.02
2018-12-18T15:55:13.117Z,98810.84
2018-12-18T15:57:45.945Z,98808.58
2018-12-18T16:00:17.912Z,98785.02
2018-12-18T16:02:49.980Z,98784.50
2018-12-18T16:05:22.100Z,98782.76
2018-12-18T16:07:54.078Z,98793.77
2018-12-18T16:10:26.033Z,98779.08
2018-12-18T16:12:58.323Z,98786.35
2018-12-18T16:15:30.352Z,98774.45
2018-12-18T16:18:02.440Z,98794.88
2018-12-18T16:20:34.438Z,98799.33
2018-12-18T16:23:06.454Z,98795.70
2018-12-18T16:25:38.448Z,98804.17
2018-12-18T16:28:10.609Z,98806.76
2018-12-18T16:30:42.765Z,98798.85
2018-12-18T16:33:14.775Z,98789.81
2018-12-18T16:35:46.838Z,98789.81
2018-12-18T16:38:18.808Z,98780.44
2018-12-18T16:40:50.701Z,98780.13
2018-12-18T16:43:22.642Z,98779.33
2018-12-18T16:45:54.748Z,98797.20
2018-12-18T16:48:27.283Z,98776.48
2018-12-18T16:50:59.316Z,98789.02
2018-12-18T16:53:31.234Z,98788.59
2018-12-18T16:56:03.418Z,98780.78
2018-12-18T16:58:35.722Z,98781.20
2018-12-18T17:01:08.009Z,98785.22
2018-12-18T17:03:40.174Z,98783.36
2018-12-18T17:06:12.343Z,98790.74
2018-12-18T17:08:44.404Z,98784.68
2018-12-18T17:11:17.205Z,98792.17
2018-12-18T17:13:49.241Z,98787.03
2018-12-18T17:16:21.431Z,98785.89
2018-12-18T17:18:53.311Z,98786.33
2018-12-18T17:21:25.430Z,98796.27
2018-12-18T17:23:57.527Z,98794.56
2018-12-18T17:26:29.359Z,98794.56
2018-12-18T17:29:01.419Z,98795.90
2018-12-18T17:31:33.322Z,98803.20
2018-12-18T17:34:05.308Z,98800.52
2018-12-18T17:36:38.008Z,98801.62
2018-12-18T17:39:10.659Z,98807.72
2018-12-18T17:41:42.822Z,98803.59
2018-12-18T17:44:15.333Z,98813.89
2018-12-18T17:46:47.315Z,98809.88
2018-12-18T17:49:19.438Z,98816.13
2018-12-18T17:51:51.510Z,98815.00
2018-12-18T17:54:23.800Z,98819.73
2018-12-18T17:56:55.672Z,98824.03
2018-12-18T17:59:27.657Z,98812.53
2018-12-18T18:01:59.676Z,98815.31
2018-12-18T18:04:31.760Z,98823.24
2018-12-18T18:07:03.788Z,98813.46
2018-12-18T18:09:35.832Z,98807.30
2018-12-18T18:12:07.860Z,98806.48
2018-12-18T18:14:39.859Z,98808.02
2018-12-18T18:17:11.597Z,98804.63
2018-12-18T18:19:43.665Z,98804.13
2018-12-18T18:22:15.537Z,98817.36
2018-12-18T18:24:47.431Z,98812.26
2018-12-18T18:27:19.381Z,98810.30
2018-12-18T18:29:51.229Z,98817.79
2018-12-18T18:32:23.201Z,98810.59
2018-12-18T18:34:55.221Z,98809.47
2018-12-18T18:37:27.131Z,98816.58
2018-12-18T18:39:59.261Z,98816.03
2018-12-18T18:42:31.278Z,98805.58
2018-12-18T18:45:03.172Z,98801.36
2018-12-18T18:47:35.279Z,98807.13
2018-12-18T18:50:08.481Z,98793.46
2018-12-18T18:52:40.483Z,98801.16
2018-12-18T18:55:12.446Z,98797.06
2018-12-18T18:57:44.307Z,98804.85
2018-12-18T19:00:15.981Z,98808.86
2018-12-18T19:02:48.021Z,98801.08
2018-12-18T19:05:20.066Z,98811.75
2018-12-18T19:07:56.422Z,98796.84
2018-12-18T19:10:26.433Z,98795.73
2018-12-18T19:12:58.290Z,98799.44
2018-12-18T19:15:30.292Z,98797.78
2018-12-18T19:18:02.211Z,98797.98
2018-12-18T19:20:34.353Z,98790.59
2018-12-18T19:23:06.186Z,98796.64
2018-12-18T19:25:38.086Z,98793.98
2018-12-18T19:28:10.016Z,98797.16
2018-12-18T19:30:41.869Z,98799.95
2018-12-18T19:33:13.817Z,98798.19
2018-12-18T19:35:45.695Z,98800.97
2018-12-18T19:38:17.791Z,98801.89
2018-12-18T19:40:49.453Z,98799.63
2018-12-18T19:43:21.570Z,98804.46
2018-12-18T19:45:53.714Z,98800.03
2018-12-18T19:48:25.743Z,98792.25
2018-12-18T19:50:57.600Z,98799.20
2018-12-18T19:53:29.623Z,98801.98
2018-12-18T19:56:01.557Z,98795.20
2018-12-18T19:58:33.572Z,98802.19
2018-12-18T20:01:05.586Z,98799.12
2018-12-18T20:03:37.622Z,98804.26
2018-12-18T20:06:09.555Z,98805.16
2018-12-18T20:08:41.583Z,98810.51
2018-12-18T20:11:13.546Z,98813.80
2018-12-18T20:13:45.516Z,98819.22
2018-12-18T20:16:17.439Z,98813.30
2018-12-18T20:18:49.280Z,98808.46
2018-12-18T20:21:21.185Z,98803.52
2018-12-18T20:23:53.343Z,98810.63
2018-12-18T20:26:25.166Z,98810.00
2018-12-18T20:28:57.094Z,98814.94
2018-12-18T20:31:29.360Z,98818.13
2018-12-18T20:34:01.637Z,98815.02
2018-12-18T20:36:33.783Z,98816.47
2018-12-18T20:39:07.891Z,98810.38
2018-12-18T20:41:40.067Z,98819.33
2018-12-18T20:44:12.136Z,98819.64
2018-12-18T20:46:44.278Z,98817.80
2018-12-18T20:49:16.253Z,98818.94
2018-12-18T20:51:48.072Z,98813.36
2018-12-18T20:54:20.125Z,98813.06
2018-12-18T20:56:52.335Z,98814.62
2018-12-18T20:59:24.307Z,98812.47
2018-12-18T21:01:56.466Z,98812.98
2018-12-18T21:04:28.522Z,98815.53
2018-12-18T21:07:00.544Z,98826.64
2018-12-18T21:09:32.413Z,98824.86
2018-12-18T21:12:04.419Z,98820.64
2018-12-18T21:14:38.070Z,98822.60
2018-12-18T21:17:10.180Z,98822.19
2018-12-18T21:19:42.158Z,98827.72
2018-12-18T21:22:14.050Z,98838.63
2018-12-18T21:24:46.282Z,98838.62
2018-12-18T21:27:18.604Z,98844.45
2018-12-18T21:29:50.725Z,98848.63
2018-12-18T21:32:22.674Z,98843.80
2018-12-18T21:34:54.713Z,98839.78
2018-12-18T21:37:26.740Z,98841.33
2018-12-18T21:39:58.822Z,98851.11
2018-12-18T21:42:31.088Z,98845.45
2018-12-18T21:45:03.171Z,98849.81
2018-12-18T21:47:35.196Z,98853.12
2018-12-18T21:50:07.755Z,98863.66
2018-12-18T21:52:39.782Z,98862.30
2018-12-18T21:55:11.650Z,98857.29
2018-12-18T21:57:43.544Z,98859.30
2018-12-18T22:00:15.502Z,98861.14
2018-12-18T22:02:47.495Z,98855.27
2018-12-18T22:05:19.194Z,98855.23
2018-12-18T22:07:51.122Z,98858.59
2018-12-18T22:10:23.055Z,98864.75
2018-12-18T22:12:55.057Z,98873.92
2018-12-18T22:15:27.063Z,98867.86
2018-12-18T22:17:59.074Z,98874.34
2018-12-18T22:20:30.952Z,98873.63
2018-12-18T22:23:02.938Z,98882.13
2018-12-18T22:25:35.072Z,98884.55
2018-12-18T22:28:07.027Z,98881.27
2018-12-18T22:30:38.990Z,98884.98
2018-12-18T22:33:11.054Z,98883.05
2018-12-18T22:35:43.207Z,98896.44
2018-12-18T22:38:15.124Z,98892.48
2018-12-18T22:40:46.968Z,98893.58
2018-12-18T22:43:18.819Z,98891.33
2018-12-18T22:45:51.106Z,98888.37
2018-12-18T22:48:22.989Z,98896.00
2018-12-18T22:50:55.127Z,98904.50
2018-12-18T22:53:27.136Z,98910.28
2018-12-18T22:55:59.016Z,98920.91
2018-12-18T22:58:30.948Z,98920.75
2018-12-18T23:01:04.019Z,98922.30
2018-12-18T23:03:35.998Z,98921.91
2018-12-18T23:06:08.048Z,98921.42
2018-12-18T23:08:40.270Z,98923.19
2018-12-18T23:11:12.263Z,98928.45
2018-12-18T23:13:44.241Z,98935.83
2018-12-18T23:16:16.919Z,98943.20
2018-12-18T23:18:48.708Z,98945.17
2018-12-18T23:21:20.785Z,98951.33
2018-12-18T23:23:52.468Z,98959.19
2018-12-18T23:26:24.222Z,98973.43
2018-12-18T23:28:56.125Z,98977.38
2018-12-18T23:31:28.004Z,98982.20
2018-12-18T23:34:00.022Z,98979.59
2018-12-18T23:36:32.095Z,98984.45
2018-12-18T23:39:04.469Z,98978.98
2018-12-18T23:41:36.815Z,98989.23
2018-12-18T23:44:08.930Z,98990.05
2018-12-18T23:46:40.926Z,98990.80
2018-12-18T23:49:12.951Z,98993.88
2018-12-18T23:51:44.997Z,98995.63
2018-12-18T23:54:16.999Z,98995.38
2018-12-18T23:56:49.979Z,99001.32
2018-12-18T23:59:22.911Z,99002.91
